createdAt,value
2022-08-11T00:01:06.080Z,99.90
2022-08-11T00:03:13.818Z,99.90
2022-08-11T00:05:32.840Z,99.90
2022-08-11T00:07:59.412Z,99.90
2022-08-11T00:10:26.505Z,99.90
2022-08-11T00:12:48.574Z,99.90
2022-08-11T00:15:05.695Z,99.90
2022-08-11T00:17:19.082Z,99.90
2022-08-11T00:20:11.940Z,99.90
2022-08-11T00:22:23.055Z,99.90
2022-08-11T00:24:53.886Z,99.90
2022-08-11T00:27:10.088Z,99.90
2022-08-11T00:29:25.611Z,99.90
2022-08-11T00:31:35.213Z,99.90
2022-08-11T00:33:45.474Z,99.90
2022-08-11T00:36:02.970Z,99.90
2022-08-11T00:38:15.696Z,99.90
2022-08-11T00:40:40.984Z,99.90
2022-08-11T00:43:44.925Z,99.90
2022-08-11T00:46:14.145Z,99.90
2022-08-11T00:48:59.724Z,99.90
2022-08-11T00:51:56.762Z,99.90
2022-08-11T00:54:58.999Z,99.90
2022-08-11T00:57:38.451Z,99.90
2022-08-11T00:59:59.637Z,99.90
2022-08-11T01:02:17.570Z,99.90
2022-08-11T01:05:17.220Z,99.90
2022-08-11T01:08:01.662Z,99.90
2022-08-11T01:10:37.597Z,99.90
2022-08-11T01:12:53.324Z,99.90
2022-08-11T01:15:33.136Z,99.90
2022-08-11T01:18:12.284Z,99.90
2022-08-11T01:20:53.300Z,99.90
2022-08-11T01:23:17.600Z,99.90
2022-08-11T01:25:57.622Z,99.90
2022-08-11T01:28:25.538Z,99.90
2022-08-11T01:31:23.679Z,99.90
2022-08-11T01:33:44.959Z,99.90
2022-08-11T01:36:32.281Z,99.90
2022-08-11T01:39:02.065Z,99.90
2022-08-11T01:41:23.204Z,99.90
2022-08-11T01:44:18.797Z,99.90
2022-08-11T01:46:45.202Z,99.90
2022-08-11T01:48:49.655Z,99.90
2022-08-11T01:51:25.628Z,99.90
2022-08-11T01:54:18.752Z,99.90
2022-08-11T01:56:41.532Z,99.90
2022-08-11T01:58:53.808Z,99.90
2022-08-11T02:01:27.144Z,99.90
2022-08-11T02:03:56.151Z,99.90
2022-08-11T02:06:30.213Z,99.90
2022-08-11T02:09:10.815Z,99.90
2022-08-11T02:11:35.871Z,99.90
2022-08-11T02:14:03.925Z,99.90
2022-08-11T02:16:32.465Z,99.90
2022-08-11T02:19:00.471Z,99.90
2022-08-11T02:21:29.729Z,99.90
2022-08-11T02:24:06.155Z,99.90
2022-08-11T02:26:24.517Z,99.90
2022-08-11T02:28:50.948Z,99.90
2022-08-11T02:32:14.920Z,99.90
2022-08-11T02:34:24.768Z,99.90
2022-08-11T02:36:49.342Z,99.90
2022-08-11T02:39:07.277Z,99.90
2022-08-11T02:42:05.468Z,99.90
2022-08-11T02:44:16.546Z,99.90
2022-08-11T02:46:42.317Z,99.90
2022-08-11T02:49:30.323Z,99.90
2022-08-11T02:52:06.263Z,99.90
2022-08-11T02:54:18.022Z,99.90
2022-08-11T02:56:47.093Z,99.90
2022-08-11T02:59:25.225Z,99.90
2022-08-11T03:01:39.456Z,99.90
2022-08-11T03:04:13.402Z,99.90
2022-08-11T03:06:15.367Z,99.90
2022-08-11T03:08:52.595Z,99.90
2022-08-11T03:11:24.114Z,99.90
2022-08-11T03:13:52.865Z,99.90
2022-08-11T03:16:31.637Z,99.90
2022-08-11T03:18:42.816Z,99.90
2022-08-11T03:21:02.720Z,99.90
2022-08-11T03:23:35.144Z,99.90
2022-08-11T03:25:54.596Z,99.90
2022-08-11T03:28:35.501Z,99.90
2022-08-11T03:31:15.474Z,99.90
2022-08-11T03:34:07.484Z,99.90
2022-08-11T03:37:16.608Z,99.90
2022-08-11T03:39:20.145Z,99.90
2022-08-11T03:42:01.948Z,99.90
2022-08-11T03:44:37.522Z,99.90
2022-08-11T03:47:08.019Z,99.90
2022-08-11T03:49:21.095Z,99.90
2022-08-11T03:51:44.885Z,99.90
2022-08-11T03:54:19.634Z,99.90
2022-08-11T03:56:43.072Z,99.90
2022-08-11T03:59:09.460Z,99.90
2022-08-11T04:01:35.634Z,99.90
2022-08-11T04:04:00.158Z,99.90
2022-08-11T04:06:45.061Z,99.90
2022-08-11T04:09:20.972Z,99.90
2022-08-11T04:11:42.428Z,99.90
2022-08-11T04:14:40.147Z,99.90
2022-08-11T04:16:53.361Z,99.90
2022-08-11T04:19:29.935Z,99.90
2022-08-11T04:22:03.896Z,99.90
2022-08-11T04:24:35.126Z,99.90
2022-08-11T04:27:10.471Z,99.90
2022-08-11T04:30:03.093Z,99.90
2022-08-11T04:32:15.974Z,99.90
2022-08-11T04:34:20.631Z,99.90
2022-08-11T04:37:09.050Z,99.90
2022-08-11T04:39:28.779Z,99.90
2022-08-11T04:42:33.816Z,99.90
2022-08-11T04:45:11.081Z,99.90
2022-08-11T04:48:03.758Z,99.90
2022-08-11T04:51:08.643Z,99.90
2022-08-11T04:54:00.756Z,99.90
2022-08-11T04:56:24.516Z,99.90
2022-08-11T04:59:04.050Z,99.90
2022-08-11T05:01:43.381Z,99.90
2022-08-11T05:04:31.965Z,99.90
2022-08-11T05:07:05.984Z,99.90
2022-08-11T05:09:16.233Z,99.90
2022-08-11T05:11:49.792Z,99.90
2022-08-11T05:14:20.613Z,99.90
2022-08-11T05:16:49.652Z,99.90
2022-08-11T05:19:16.127Z,99.90
2022-08-11T05:21:45.008Z,99.90
2022-08-11T05:24:15.368Z,99.90
2022-08-11T05:26:47.373Z,99.90
2022-08-11T05:29:21.135Z,99.90
2022-08-11T05:31:53.332Z,99.90
2022-08-11T05:34:41.606Z,99.90
2022-08-11T05:36:48.359Z,99.90
2022-08-11T05:39:20.235Z,99.90
2022-08-11T05:41:59.769Z,99.90
2022-08-11T05:44:22.748Z,99.90
2022-08-11T05:46:46.315Z,99.90
2022-08-11T05:49:08.613Z,99.90
2022-08-11T05:51:30.698Z,99.90
2022-08-11T05:53:51.887Z,99.90
2022-08-11T05:56:13.400Z,99.90
2022-08-11T05:58:16.583Z,99.90
2022-08-11T06:00:37.113Z,99.90
2022-08-11T06:02:44.508Z,99.90
2022-08-11T06:04:46.635Z,99.90
2022-08-11T06:06:57.679Z,99.90
2022-08-11T06:09:01.039Z,99.90
2022-08-11T06:11:08.139Z,99.90
2022-08-11T06:13:11.086Z,99.90
2022-08-11T06:15:14.083Z,99.90
2022-08-11T06:17:27.309Z,99.90
2022-08-11T06:19:46.741Z,99.90
2022-08-11T06:21:53.338Z,99.90
2022-08-11T06:23:56.233Z,99.90
2022-08-11T06:25:59.731Z,99.90
2022-08-11T06:28:05.520Z,99.90
2022-08-11T06:30:13.577Z,99.90
2022-08-11T06:32:16.532Z,99.90
2022-08-11T06:34:56.488Z,99.90
2022-08-11T06:37:20.757Z,99.90
2022-08-11T06:39:33.017Z,99.90
2022-08-11T06:41:40.598Z,99.90
2022-08-11T06:43:55.475Z,99.90
2022-08-11T06:46:05.906Z,99.90
2022-08-11T06:48:17.151Z,99.90
2022-08-11T06:50:40.043Z,99.90
2022-08-11T06:52:53.424Z,99.90
2022-08-11T06:55:58.190Z,99.90
2022-08-11T06:57:58.596Z,99.90
2022-08-11T07:00:23.943Z,99.90
2022-08-11T07:02:43.323Z,99.90
2022-08-11T07:04:52.046Z,99.90
2022-08-11T07:07:45.086Z,99.90
2022-08-11T07:10:20.618Z,99.90
2022-08-11T07:13:00.494Z,99.90
2022-08-11T07:15:25.012Z,99.90
2022-08-11T07:18:11.806Z,99.70
2022-08-11T07:20:33.408Z,99.20
2022-08-11T07:22:55.471Z,98.80
2022-08-11T07:25:45.148Z,98.40
2022-08-11T07:28:11.831Z,97.80
2022-08-11T07:30:14.290Z,96.60
2022-08-11T07:32:24.413Z,96.20
2022-08-11T07:34:34.397Z,95.60
2022-08-11T07:36:47.998Z,94.90
2022-08-11T07:38:52.852Z,94.70
2022-08-11T07:40:59.488Z,94.50
2022-08-11T07:43:04.173Z,94.30
2022-08-11T07:45:29.698Z,93.70
2022-08-11T07:47:53.500Z,93.20
2022-08-11T07:50:14.116Z,93.20
2022-08-11T07:52:33.856Z,92.90
2022-08-11T07:54:38.225Z,92.00
2022-08-11T07:57:07.228Z,91.50
2022-08-11T07:59:25.451Z,90.90
2022-08-11T08:02:10.478Z,90.40
2022-08-11T08:04:33.894Z,90.00
2022-08-11T08:06:58.488Z,88.80
2022-08-11T08:09:21.091Z,88.00
2022-08-11T08:11:42.759Z,87.20
2022-08-11T08:14:04.962Z,86.80
2022-08-11T08:16:25.415Z,84.60
2022-08-11T08:18:29.764Z,84.20
2022-08-11T08:20:46.255Z,83.40
2022-08-11T08:22:56.555Z,82.50
2022-08-11T08:24:59.804Z,82.60
2022-08-11T08:27:04.087Z,82.60
2022-08-11T08:29:26.644Z,82.60
2022-08-11T08:31:28.951Z,80.60
2022-08-11T08:33:32.020Z,79.20
2022-08-11T08:35:36.577Z,78.00
2022-08-11T08:37:59.084Z,78.10
2022-08-11T08:40:01.359Z,78.50
2022-08-11T08:42:07.531Z,77.50
2022-08-11T08:44:37.141Z,75.90
2022-08-11T08:46:43.720Z,74.30
2022-08-11T08:48:52.145Z,73.50
2022-08-11T08:51:22.956Z,72.80
2022-08-11T08:53:32.940Z,71.90
2022-08-11T08:55:35.416Z,70.70
2022-08-11T08:57:40.263Z,70.80
2022-08-11T08:59:48.421Z,71.00
2022-08-11T09:01:58.234Z,70.30
2022-08-11T09:04:05.030Z,67.30
2022-08-11T09:06:15.202Z,67.20
2022-08-11T09:08:19.454Z,65.60
2022-08-11T09:10:22.821Z,64.40
2022-08-11T09:12:38.396Z,64.40
2022-08-11T09:15:03.765Z,64.00
2022-08-11T09:17:06.261Z,62.80
2022-08-11T09:19:10.399Z,61.90
2022-08-11T09:21:39.305Z,61.00
2022-08-11T09:24:07.871Z,60.50
2022-08-11T09:26:31.878Z,59.60
2022-08-11T09:28:35.679Z,58.00
2022-08-11T09:30:40.730Z,58.00
2022-08-11T09:32:45.437Z,55.80
2022-08-11T09:34:52.416Z,55.20
2022-08-11T09:37:28.514Z,54.70
2022-08-11T09:39:58.268Z,55.70
2022-08-11T09:42:04.212Z,55.80
2022-08-11T09:44:45.619Z,53.70
2022-08-11T09:46:49.819Z,53.10
2022-08-11T09:48:57.073Z,52.80
2022-08-11T09:51:01.913Z,52.80
2022-08-11T09:53:37.823Z,50.20
2022-08-11T09:55:28.322Z,49.90
2022-08-11T09:57:48.977Z,49.00
2022-08-11T09:59:53.299Z,47.50
2022-08-11T10:02:16.253Z,46.30
2022-08-11T10:04:25.781Z,46.10
2022-08-11T10:06:48.282Z,44.00
2022-08-11T10:08:56.381Z,43.40
2022-08-11T10:10:58.446Z,44.30
2022-08-11T10:13:04.821Z,43.90
2022-08-11T10:15:30.673Z,45.10
2022-08-11T10:17:37.921Z,45.00
2022-08-11T10:19:43.534Z,45.10
2022-08-11T10:22:10.377Z,42.70
2022-08-11T10:24:31.257Z,40.70
2022-08-11T10:26:53.619Z,41.80
2022-08-11T10:29:12.650Z,40.80
2022-08-11T10:31:57.027Z,41.90
2022-08-11T10:34:01.708Z,42.10
2022-08-11T10:36:16.580Z,42.30
2022-08-11T10:38:19.418Z,42.90
2022-08-11T10:40:23.796Z,42.60
2022-08-11T10:42:57.284Z,42.30
2022-08-11T10:45:01.839Z,41.60
2022-08-11T10:47:23.992Z,41.60
2022-08-11T10:49:27.828Z,40.80
2022-08-11T10:51:52.078Z,39.80
2022-08-11T10:54:17.221Z,40.00
2022-08-11T10:56:38.672Z,40.40
2022-08-11T10:58:50.626Z,39.80
2022-08-11T11:00:57.306Z,40.60
2022-08-11T11:03:16.824Z,39.50
2022-08-11T11:05:30.539Z,39.10
2022-08-11T11:07:47.469Z,36.10
2022-08-11T11:09:58.481Z,37.20
2022-08-11T11:12:24.880Z,37.40
2022-08-11T11:14:55.002Z,36.30
2022-08-11T11:17:20.806Z,36.70
2022-08-11T11:19:25.556Z,35.70
2022-08-11T11:21:28.836Z,35.20
2022-08-11T11:24:05.066Z,36.70
2022-08-11T11:26:27.021Z,36.40
2022-08-11T11:29:03.500Z,35.70
2022-08-11T11:31:51.292Z,36.80
2022-08-11T11:34:12.562Z,34.90
2022-08-11T11:36:39.536Z,33.90
2022-08-11T11:38:42.271Z,35.60
2022-08-11T11:40:44.536Z,37.20
2022-08-11T11:42:48.412Z,35.90
2022-08-11T11:44:55.582Z,36.00
2022-08-11T11:47:00.531Z,34.60
2022-08-11T11:49:10.724Z,34.90
2022-08-11T11:51:20.755Z,34.00
2022-08-11T11:53:23.172Z,34.20
2022-08-11T11:55:27.372Z,33.70
2022-08-11T11:57:59.094Z,36.30
2022-08-11T12:00:33.627Z,35.60
2022-08-11T12:02:37.382Z,35.50
2022-08-11T12:04:43.511Z,35.50
2022-08-11T12:06:47.531Z,34.90
2022-08-11T12:08:53.213Z,34.90
2022-08-11T12:11:16.288Z,33.10
2022-08-11T12:13:37.474Z,33.10
2022-08-11T12:16:31.875Z,33.50
2022-08-11T12:18:02.718Z,33.00
2022-08-11T12:20:05.902Z,33.80
2022-08-11T12:22:48.091Z,33.40
2022-08-11T12:25:08.879Z,33.90
2022-08-11T12:27:24.842Z,34.80
2022-08-11T12:29:28.276Z,34.30
2022-08-11T12:31:31.026Z,34.50
2022-08-11T12:33:37.432Z,34.60
2022-08-11T12:35:42.086Z,35.10
2022-08-11T12:38:10.684Z,35.80
2022-08-11T12:41:11.801Z,35.40
2022-08-11T12:43:38.913Z,35.20
2022-08-11T12:45:42.861Z,35.60
2022-08-11T12:48:58.559Z,35.60
2022-08-11T12:50:49.416Z,35.60
2022-08-11T12:52:55.079Z,35.20
2022-08-11T12:54:59.874Z,34.50
2022-08-11T12:57:37.100Z,34.60
2022-08-11T12:59:59.469Z,34.50
2022-08-11T13:02:22.021Z,35.50
2022-08-11T13:04:46.454Z,34.90
2022-08-11T13:06:52.817Z,34.30
2022-08-11T13:09:01.135Z,34.20
2022-08-11T13:11:23.914Z,34.80
2022-08-11T13:13:55.699Z,33.20
2022-08-11T13:15:50.001Z,34.10
2022-08-11T13:17:54.378Z,34.70
2022-08-11T13:19:59.373Z,33.90
2022-08-11T13:22:02.529Z,33.70
2022-08-11T13:24:06.085Z,34.20
2022-08-11T13:26:09.014Z,34.30
2022-08-11T13:28:12.623Z,34.30
2022-08-11T13:30:37.105Z,34.00
2022-08-11T13:32:45.274Z,34.00
2022-08-11T13:34:48.048Z,33.30
2022-08-11T13:36:53.277Z,32.50
2022-08-11T13:38:58.421Z,32.40
2022-08-11T13:41:01.097Z,32.70
2022-08-11T13:43:03.710Z,32.90
2022-08-11T13:45:07.592Z,32.80
2022-08-11T13:47:13.452Z,32.40
2022-08-11T13:49:18.733Z,32.40
2022-08-11T13:51:34.792Z,33.70
2022-08-11T13:53:37.478Z,33.70
2022-08-11T13:55:52.157Z,33.90
2022-08-11T13:58:06.515Z,33.80
2022-08-11T14:00:27.627Z,33.90
2022-08-11T14:02:31.880Z,34.10
2022-08-11T14:04:40.093Z,34.30
2022-08-11T14:06:48.828Z,34.30
2022-08-11T14:08:53.894Z,33.70
2022-08-11T14:12:21.589Z,33.80
2022-08-11T14:13:48.076Z,33.40
2022-08-11T14:15:52.266Z,34.10
2022-08-11T14:18:06.864Z,35.00
2022-08-11T14:20:35.313Z,33.40
2022-08-11T14:22:33.302Z,34.30
2022-08-11T14:24:44.058Z,34.70
2022-08-11T14:26:49.237Z,34.10
2022-08-11T14:28:55.183Z,34.30
2022-08-11T14:31:01.294Z,34.60
2022-08-11T14:33:16.505Z,35.20
2022-08-11T14:35:19.885Z,35.60
2022-08-11T14:37:25.499Z,35.40
2022-08-11T14:39:37.631Z,35.20
2022-08-11T14:42:10.898Z,35.00
2022-08-11T14:44:34.629Z,35.80
2022-08-11T14:46:55.621Z,35.80
2022-08-11T14:48:58.585Z,35.60
2022-08-11T14:51:00.696Z,36.20
2022-08-11T14:53:11.517Z,36.30
2022-08-11T14:55:39.793Z,36.70
2022-08-11T14:57:54.452Z,36.50
2022-08-11T15:00:03.862Z,37.00
2022-08-11T15:02:25.428Z,37.50
2022-08-11T15:04:35.312Z,37.50
2022-08-11T15:06:38.426Z,37.70
2022-08-11T15:08:56.465Z,37.90
2022-08-11T15:10:58.654Z,37.90
2022-08-11T15:13:01.389Z,37.50
2022-08-11T15:15:25.286Z,37.80
2022-08-11T15:17:32.324Z,38.10
2022-08-11T15:20:08.244Z,38.30
2022-08-11T15:22:29.609Z,37.70
2022-08-11T15:24:33.735Z,38.10
2022-08-11T15:27:00.022Z,38.40
2022-08-11T15:29:23.513Z,38.90
2022-08-11T15:31:49.359Z,38.30
2022-08-11T15:34:12.753Z,39.00
2022-08-11T15:36:39.274Z,39.80
2022-08-11T15:38:49.255Z,39.00
2022-08-11T15:41:17.077Z,39.10
2022-08-11T15:43:45.700Z,39.10
2022-08-11T15:45:52.138Z,38.80
2022-08-11T15:48:05.242Z,39.40
2022-08-11T15:50:14.077Z,39.80
2022-08-11T15:52:25.012Z,40.00
2022-08-11T15:54:31.861Z,40.10
2022-08-11T15:56:37.862Z,40.10
2022-08-11T15:59:40.653Z,40.30
2022-08-11T16:01:50.105Z,40.20
2022-08-11T16:04:12.995Z,40.50
2022-08-11T16:06:17.092Z,40.40
2022-08-11T16:08:28.750Z,40.70
2022-08-11T16:10:39.898Z,40.50
2022-08-11T16:13:14.959Z,40.60
2022-08-11T16:15:35.860Z,40.60
2022-08-11T16:17:48.687Z,40.90
2022-08-11T16:19:53.249Z,41.30
2022-08-11T16:21:57.395Z,41.40
2022-08-11T16:24:01.347Z,41.30
2022-08-11T16:27:07.646Z,41.00
2022-08-11T16:28:31.637Z,41.30
2022-08-11T16:30:40.134Z,41.50
2022-08-11T16:32:46.194Z,41.40
2022-08-11T16:35:14.416Z,41.30
2022-08-11T16:37:37.349Z,41.90
2022-08-11T16:39:41.339Z,42.20
2022-08-11T16:43:05.189Z,42.00
2022-08-11T16:44:57.886Z,41.90
2022-08-11T16:47:01.483Z,42.30
2022-08-11T16:49:17.135Z,42.10
2022-08-11T16:51:21.078Z,42.20
2022-08-11T16:53:23.247Z,42.20
2022-08-11T16:55:52.543Z,42.40
2022-08-11T16:58:14.483Z,42.90
2022-08-11T17:00:17.918Z,42.90
2022-08-11T17:02:41.875Z,42.60
2022-08-11T17:05:06.315Z,42.10
2022-08-11T17:07:41.944Z,41.50
2022-08-11T17:10:39.360Z,41.20
2022-08-11T17:12:50.730Z,42.10
2022-08-11T17:14:58.108Z,41.50
2022-08-11T17:17:03.734Z,41.70
2022-08-11T17:19:11.544Z,42.00
2022-08-11T17:21:18.758Z,42.60
2022-08-11T17:23:39.350Z,42.80
2022-08-11T17:25:58.733Z,42.80
2022-08-11T17:28:06.745Z,42.30
2022-08-11T17:30:11.627Z,42.20
2022-08-11T17:32:57.151Z,42.00
2022-08-11T17:35:22.925Z,41.80
2022-08-11T17:37:26.139Z,40.60
2022-08-11T17:39:31.753Z,39.70
2022-08-11T17:41:52.247Z,39.20
2022-08-11T17:44:14.390Z,39.20
2022-08-11T17:46:36.148Z,40.00
2022-08-11T17:48:47.702Z,41.10
2022-08-11T17:50:52.858Z,41.90
2022-08-11T17:53:14.460Z,42.70
2022-08-11T17:55:52.470Z,43.30
2022-08-11T17:58:14.769Z,43.80
2022-08-11T18:00:17.446Z,44.50
2022-08-11T18:02:53.234Z,45.10
2022-08-11T18:04:56.303Z,45.60
2022-08-11T18:06:58.285Z,46.20
2022-08-11T18:09:20.863Z,46.40
2022-08-11T18:12:10.080Z,46.70
2022-08-11T18:14:28.937Z,47.20
2022-08-11T18:16:50.150Z,47.40
2022-08-11T18:19:11.576Z,47.80
2022-08-11T18:21:35.765Z,48.20
2022-08-11T18:23:56.352Z,48.60
2022-08-11T18:26:20.583Z,49.00
2022-08-11T18:28:46.274Z,49.60
2022-08-11T18:31:13.088Z,49.90
2022-08-11T18:36:18.845Z,50.90
2022-08-11T18:38:42.908Z,51.20
2022-08-11T18:41:04.481Z,51.70
2022-08-11T18:43:29.728Z,52.20
2022-08-11T18:46:06.133Z,52.60
2022-08-11T18:48:34.199Z,53.20
2022-08-11T18:51:30.024Z,53.70
2022-08-11T18:53:39.238Z,53.80
2022-08-11T18:56:03.521Z,54.40
2022-08-11T18:58:30.712Z,54.90
2022-08-11T19:00:52.878Z,55.10
2022-08-11T19:03:15.212Z,55.30
2022-08-11T19:06:32.116Z,56.00
2022-08-11T19:08:21.182Z,56.40
2022-08-11T19:10:42.339Z,56.90
2022-08-11T19:13:05.462Z,57.40
2022-08-11T19:15:27.639Z,58.00
2022-08-11T19:17:50.156Z,58.70
2022-08-11T19:20:12.854Z,59.30
2022-08-11T19:22:35.570Z,59.90
2022-08-11T19:24:58.233Z,60.30
2022-08-11T19:27:19.811Z,60.80
2022-08-11T19:30:11.973Z,61.40
2022-08-11T19:32:25.342Z,61.90
2022-08-11T19:34:47.342Z,62.40
2022-08-11T19:37:08.166Z,63.00
2022-08-11T19:39:29.713Z,63.30
2022-08-11T19:41:57.095Z,63.90
2022-08-11T19:44:19.664Z,64.20
2022-08-11T19:46:42.178Z,64.80
2022-08-11T19:49:04.966Z,65.10
2022-08-11T19:51:26.933Z,65.70
2022-08-11T19:53:48.493Z,66.40
2022-08-11T19:56:11.895Z,66.90
2022-08-11T19:58:34.772Z,67.20
2022-08-11T20:00:56.192Z,67.40
2022-08-11T20:03:19.298Z,68.20
2022-08-11T20:05:40.154Z,68.90
2022-08-11T20:08:18.585Z,69.00
2022-08-11T20:10:40.796Z,69.40
2022-08-11T20:13:02.030Z,70.30
2022-08-11T20:15:27.154Z,70.80
2022-08-11T20:17:53.689Z,71.20
2022-08-11T20:20:18.706Z,72.30
2022-08-11T20:22:40.234Z,72.30
2022-08-11T20:25:02.603Z,71.60
2022-08-11T20:27:26.435Z,72.20
2022-08-11T20:29:50.194Z,73.00
2022-08-11T20:32:16.726Z,72.80
2022-08-11T20:34:38.717Z,73.30
2022-08-11T20:37:01.010Z,74.10
2022-08-11T20:39:23.078Z,75.20
2022-08-11T20:41:58.634Z,75.80
2022-08-11T20:44:24.203Z,76.40
2022-08-11T20:46:50.490Z,76.40
2022-08-11T20:49:12.798Z,76.40
2022-08-11T20:51:38.628Z,77.30
2022-08-11T20:54:10.965Z,77.10
2022-08-11T20:56:33.818Z,77.60
2022-08-11T20:59:18.260Z,77.40
2022-08-11T21:01:41.184Z,77.80
2022-08-11T21:04:02.110Z,78.70
2022-08-11T21:06:31.813Z,79.10
2022-08-11T21:09:03.144Z,79.60
2022-08-11T21:11:27.900Z,79.00
2022-08-11T21:13:58.090Z,78.40
2022-08-11T21:16:27.182Z,79.40
2022-08-11T21:18:55.032Z,80.20
2022-08-11T21:21:19.465Z,80.10
2022-08-11T21:23:42.264Z,80.70
2022-08-11T21:26:07.604Z,81.00
2022-08-11T21:28:37.894Z,80.90
2022-08-11T21:31:02.010Z,82.00
2022-08-11T21:33:26.798Z,81.90
2022-08-11T21:35:49.011Z,82.30
2022-08-11T21:38:11.773Z,82.50
2022-08-11T21:40:39.582Z,83.60
2022-08-11T21:43:03.840Z,83.40
2022-08-11T21:45:28.213Z,84.00
2022-08-11T21:47:50.153Z,84.60
2022-08-11T21:50:22.142Z,85.40
2022-08-11T21:52:43.199Z,86.50
2022-08-11T21:55:04.155Z,86.40
2022-08-11T21:57:25.798Z,87.70
2022-08-11T22:00:02.556Z,88.50
2022-08-11T22:02:23.308Z,88.40
2022-08-11T22:04:44.737Z,88.50
2022-08-11T22:07:06.012Z,89.00
2022-08-11T22:09:26.623Z,89.40
2022-08-11T22:11:47.556Z,90.20
2022-08-11T22:14:08.380Z,90.40
2022-08-11T22:16:29.562Z,90.70
2022-08-11T22:18:53.902Z,91.10
2022-08-11T22:21:56.602Z,91.50
2022-08-11T22:23:59.297Z,91.10
2022-08-11T22:26:22.017Z,91.40
2022-08-11T22:28:43.224Z,91.50
2022-08-11T22:31:03.459Z,91.90
2022-08-11T22:33:28.460Z,92.00
2022-08-11T22:35:53.597Z,92.30
2022-08-11T22:38:16.245Z,93.00
2022-08-11T22:40:36.726Z,93.20
2022-08-11T22:42:57.597Z,93.60
2022-08-11T22:45:19.163Z,93.50
2022-08-11T22:47:42.273Z,93.70
2022-08-11T22:50:07.579Z,94.10
2022-08-11T22:52:28.656Z,93.80
2022-08-11T22:54:50.897Z,95.50
2022-08-11T22:57:12.344Z,93.90
2022-08-11T22:59:35.429Z,94.00
2022-08-11T23:01:57.755Z,94.30
2022-08-11T23:04:20.069Z,94.10
2022-08-11T23:06:41.114Z,94.90
2022-08-11T23:09:02.742Z,95.20
2022-08-11T23:11:23.969Z,95.10
2022-08-11T23:13:45.147Z,95.60
2022-08-11T23:16:06.079Z,95.50
2022-08-11T23:18:27.199Z,95.70
2022-08-11T23:20:55.397Z,95.30
2022-08-11T23:23:17.961Z,95.50
2022-08-11T23:25:38.820Z,95.80
2022-08-11T23:28:01.187Z,96.30
2022-08-11T23:30:23.784Z,96.40
2022-08-11T23:32:45.808Z,96.60
2022-08-11T23:35:38.808Z,96.60
2022-08-11T23:37:55.577Z,96.70
2022-08-11T23:40:20.467Z,96.70
2022-08-11T23:42:44.020Z,97.10
2022-08-11T23:45:09.910Z,97.30
2022-08-11T23:47:31.799Z,97.00
2022-08-11T23:50:11.156Z,96.90
2022-08-11T23:52:38.074Z,96.80
2022-08-11T23:54:59.607Z,96.70
2022-08-11T23:57:20.777Z,96.60
2022-08-11T23:59:42.063Z,96.30
